Time;durP1;ratioP1;P1;durP2;ratioP2;P2;SDS_P1;SDS_P2;PMS_P1;PMS_P2;Temp;Humidity;BMP_temperature;BMP_pressure;BME280_temperature;BME280_humidity;BME280_pressure;Samples;Min_cycle;Max_cycle;Signal;HPM_P1;HPM_P2
2024/02/16 00:01:57;;;;;;;22.10;10.13;;;10.50;99.90;;;;;;5062569;28;20021;-67
2024/02/16 00:04:23;;;;;;;22.00;10.07;;;10.50;99.90;;;;;;5062225;28;20055;-67
2024/02/16 00:06:48;;;;;;;29.98;10.45;;;10.50;99.90;;;;;;5061567;28;20049;-68
2024/02/16 00:09:14;;;;;;;16.17;9.50;;;10.50;99.90;;;;;;5062220;28;20071;-65
2024/02/16 00:11:40;;;;;;;19.33;9.48;;;10.50;99.90;;;;;;5061678;28;20025;-66
2024/02/16 00:14:05;;;;;;;23.42;10.48;;;10.50;99.90;;;;;;5061907;28;20071;-65
2024/02/16 00:16:31;;;;;;;15.40;9.43;;;10.50;99.90;;;;;;5062271;28;20032;-67
2024/02/16 00:18:56;;;;;;;21.48;10.02;;;10.40;99.90;;;;;;5062214;28;20112;-65
2024/02/16 00:21:22;;;;;;;18.92;9.95;;;10.40;99.90;;;;;;5061904;28;20028;-66
2024/02/16 00:23:47;;;;;;;18.20;9.20;;;10.40;99.90;;;;;;5061949;28;20067;-67
2024/02/16 00:26:13;;;;;;;20.20;9.40;;;10.40;99.90;;;;;;5061993;28;20111;-65
2024/02/16 00:28:38;;;;;;;18.73;9.90;;;10.40;99.90;;;;;;5061627;28;20426;-67
2024/02/16 00:31:05;;;;;;;17.60;8.80;;;10.40;99.90;;;;;;5062112;28;20033;-66
2024/02/16 00:33:31;;;;;;;19.55;9.77;;;10.40;99.90;;;;;;5061603;28;20192;-65
2024/02/16 00:35:56;;;;;;;19.08;9.80;;;10.40;99.90;;;;;;5060522;28;20056;-67
2024/02/16 00:38:23;;;;;;;21.23;11.10;;;10.40;99.90;;;;;;5061888;28;21165;-67
2024/02/16 00:40:49;;;;;;;17.80;9.95;;;10.40;99.90;;;;;;5061206;28;20021;-67
2024/02/16 00:43:15;;;;;;;19.77;9.88;;;10.40;99.90;;;;;;5061726;28;20031;-66
2024/02/16 00:45:44;;;;;;;17.40;10.00;;;10.40;99.90;;;;;;5060534;28;20064;-67
2024/02/16 00:48:09;;;;;;;18.65;8.85;;;10.40;99.90;;;;;;5059314;28;20024;-67
2024/02/16 00:50:35;;;;;;;17.30;9.20;;;10.40;99.90;;;;;;5061657;28;20045;-66
2024/02/16 00:53:01;;;;;;;22.00;10.73;;;10.40;99.90;;;;;;5061632;28;20031;-67
2024/02/16 00:55:27;;;;;;;17.95;9.50;;;10.40;99.90;;;;;;5061407;28;20025;-68
2024/02/16 00:57:52;;;;;;;16.05;8.57;;;10.40;99.90;;;;;;5061797;28;20029;-69
2024/02/16 01:00:19;;;;;;;22.02;9.63;;;10.40;99.90;;;;;;5060227;28;20055;-66
2024/02/16 01:02:45;;;;;;;18.33;8.95;;;10.40;99.90;;;;;;5060962;28;20116;-65
2024/02/16 01:05:10;;;;;;;16.58;9.45;;;10.40;99.90;;;;;;5061533;28;20036;-65
2024/02/16 01:07:36;;;;;;;16.45;9.70;;;10.40;99.90;;;;;;5061196;28;20057;-67
2024/02/16 01:10:03;;;;;;;18.98;9.73;;;10.40;99.90;;;;;;5062109;28;20063;-65
2024/02/16 01:12:31;;;;;;;17.80;9.23;;;10.40;99.90;;;;;;5065631;28;20029;-67
2024/02/16 01:14:56;;;;;;;21.48;9.65;;;10.40;99.90;;;;;;5065080;28;20021;-66
2024/02/16 01:17:22;;;;;;;18.05;9.07;;;10.40;99.90;;;;;;5064003;28;20042;-66
2024/02/16 01:19:48;;;;;;;20.15;8.93;;;10.40;99.90;;;;;;5065511;28;20093;-67
2024/02/16 01:22:14;;;;;;;21.80;9.48;;;10.40;99.90;;;;;;5065101;28;20025;-65
2024/02/16 01:24:39;;;;;;;17.23;8.20;;;10.40;99.90;;;;;;5063648;28;20025;-65
2024/02/16 01:27:05;;;;;;;18.50;8.68;;;10.30;99.90;;;;;;5065407;28;20052;-68
2024/02/16 01:29:32;;;;;;;17.23;8.95;;;10.30;99.90;;;;;;5064157;28;20045;-68
2024/02/16 01:31:58;;;;;;;15.43;8.00;;;10.30;99.90;;;;;;5065024;28;20017;-66
2024/02/16 01:34:24;;;;;;;17.42;8.77;;;10.30;99.90;;;;;;5065184;28;20081;-67
2024/02/16 01:36:49;;;;;;;17.38;9.35;;;10.30;99.90;;;;;;5064896;28;20055;-65
2024/02/16 01:39:15;;;;;;;18.42;8.52;;;10.30;99.90;;;;;;5065184;28;20051;-66
2024/02/16 01:41:40;;;;;;;15.48;8.57;;;10.30;99.90;;;;;;5064923;28;20539;-68
2024/02/16 01:44:06;;;;;;;18.52;8.48;;;10.30;99.90;;;;;;5064570;28;20636;-67
2024/02/16 01:46:33;;;;;;;15.20;8.07;;;10.30;99.90;;;;;;5064918;28;20037;-67
2024/02/16 01:48:59;;;;;;;16.48;7.93;;;10.30;99.90;;;;;;5064443;28;20044;-67
2024/02/16 01:51:25;;;;;;;13.77;6.70;;;10.30;99.90;;;;;;5064748;28;20020;-66
2024/02/16 01:53:52;;;;;;;19.40;7.63;;;10.30;99.90;;;;;;5064789;28;20466;-65
2024/02/16 01:56:20;;;;;;;13.10;6.53;;;10.20;99.90;;;;;;5064824;28;20025;-67
2024/02/16 01:58:46;;;;;;;11.07;6.22;;;10.20;99.90;;;;;;5064417;28;20044;-67
2024/02/16 02:01:12;;;;;;;14.30;6.00;;;10.20;99.90;;;;;;5064809;28;20029;-66
2024/02/16 02:03:37;;;;;;;16.80;6.80;;;10.20;99.90;;;;;;5064453;28;20032;-68
2024/02/16 02:06:03;;;;;;;16.25;6.47;;;10.20;99.90;;;;;;5063856;28;20057;-66
2024/02/16 02:08:28;;;;;;;16.80;6.65;;;10.20;99.90;;;;;;5064634;28;20025;-68
2024/02/16 02:10:54;;;;;;;19.60;6.78;;;10.20;99.90;;;;;;5064404;28;20097;-68
2024/02/16 02:13:21;;;;;;;12.63;6.65;;;10.20;99.90;;;;;;5064600;28;20028;-67
2024/02/16 02:15:47;;;;;;;14.85;7.72;;;10.20;99.90;;;;;;5064154;28;20048;-67
2024/02/16 02:18:13;;;;;;;10.80;6.80;;;10.20;99.90;;;;;;5063659;28;20022;-67
2024/02/16 02:20:39;;;;;;;14.35;7.10;;;10.10;99.90;;;;;;5063668;28;20044;-67
2024/02/16 02:23:05;;;;;;;12.68;6.97;;;10.20;99.90;;;;;;5063392;28;20021;-67
2024/02/16 02:25:30;;;;;;;13.95;6.97;;;10.10;99.90;;;;;;5063948;28;20016;-65
2024/02/16 02:27:56;;;;;;;14.70;7.25;;;10.10;99.90;;;;;;5064032;28;21440;-66
2024/02/16 02:30:22;;;;;;;20.17;7.32;;;10.10;99.90;;;;;;5064387;28;20048;-66
2024/02/16 02:32:49;;;;;;;11.55;6.95;;;10.10;99.90;;;;;;5063378;28;20025;-66
2024/02/16 02:35:17;;;;;;;12.40;6.93;;;10.10;99.90;;;;;;5063899;28;20055;-66
2024/02/16 02:37:43;;;;;;;14.82;6.75;;;10.10;99.90;;;;;;5063455;28;20036;-68
2024/02/16 02:40:12;;;;;;;11.32;6.60;;;10.10;99.90;;;;;;5063688;28;20021;-67
2024/02/16 02:42:38;;;;;;;16.15;7.03;;;10.20;99.90;;;;;;5063422;28;20052;-65
2024/02/16 02:45:04;;;;;;;14.70;7.47;;;10.10;99.90;;;;;;5063883;28;20078;-65
2024/02/16 02:47:30;;;;;;;13.93;7.15;;;10.10;99.90;;;;;;5063363;28;20036;-67
2024/02/16 02:49:55;;;;;;;12.15;7.05;;;10.10;99.90;;;;;;5063854;28;20045;-67
2024/02/16 02:52:21;;;;;;;11.15;6.60;;;10.20;99.90;;;;;;5063395;28;20025;-68
2024/02/16 02:54:47;;;;;;;15.45;6.85;;;10.10;99.90;;;;;;5062940;28;20036;-68
2024/02/16 02:57:13;;;;;;;12.32;7.40;;;10.20;99.90;;;;;;5063728;28;20434;-66
2024/02/16 02:59:39;;;;;;;13.82;6.93;;;10.20;99.90;;;;;;5063595;28;20351;-66
2024/02/16 03:02:04;;;;;;;19.80;6.80;;;10.20;99.90;;;;;;5063204;28;20080;-66
2024/02/16 03:04:30;;;;;;;15.45;6.03;;;10.20;99.90;;;;;;5063295;28;20048;-68
2024/02/16 03:06:55;;;;;;;15.45;5.72;;;10.20;99.90;;;;;;5062982;28;20513;-67
2024/02/16 03:09:22;;;;;;;8.98;5.80;;;10.10;99.90;;;;;;5063401;28;20041;-66
2024/02/16 03:11:50;;;;;;;11.25;6.13;;;10.10;99.90;;;;;;5063093;28;20020;-67
2024/02/16 03:14:17;;;;;;;11.90;6.05;;;10.20;99.90;;;;;;5061761;28;20040;-66
2024/02/16 03:16:43;;;;;;;17.75;8.10;;;10.10;99.90;;;;;;5062786;28;20112;-65
2024/02/16 03:19:08;;;;;;;13.32;5.88;;;10.10;99.90;;;;;;5060147;28;20033;-66
2024/02/16 03:21:34;;;;;;;12.60;5.38;;;10.10;99.90;;;;;;5062332;28;20032;-66
2024/02/16 03:24:01;;;;;;;9.15;5.15;;;10.10;99.90;;;;;;5061705;28;21430;-68
2024/02/16 03:26:26;;;;;;;11.95;5.28;;;10.10;99.90;;;;;;5061292;28;20060;-66
2024/02/16 03:28:52;;;;;;;13.38;5.18;;;10.10;99.90;;;;;;5062157;28;20488;-66
2024/02/16 03:31:23;;;;;;;11.30;5.25;;;10.10;99.90;;;;;;5063049;28;20059;-65
2024/02/16 03:33:49;;;;;;;12.30;4.85;;;10.10;99.90;;;;;;5062645;28;20033;-67
2024/02/16 03:36:15;;;;;;;14.93;5.78;;;10.10;99.90;;;;;;5061937;28;20115;-66
2024/02/16 03:38:42;;;;;;;11.30;5.18;;;10.10;99.90;;;;;;5062755;28;20024;-66
2024/02/16 03:41:11;;;;;;;11.82;5.32;;;10.10;99.90;;;;;;5062599;28;20535;-67
2024/02/16 03:43:36;;;;;;;11.27;5.45;;;10.20;99.90;;;;;;5062210;28;20025;-66
2024/02/16 03:46:03;;;;;;;8.82;5.18;;;10.10;99.90;;;;;;5060036;28;20051;-66
2024/02/16 03:48:28;;;;;;;12.40;5.35;;;10.10;99.90;;;;;;5061887;28;20025;-69
2024/02/16 03:50:54;;;;;;;12.82;5.65;;;10.10;99.90;;;;;;5062590;28;20060;-67
2024/02/16 03:53:19;;;;;;;13.77;5.40;;;10.10;99.90;;;;;;5062819;28;20024;-67
2024/02/16 03:55:45;;;;;;;9.77;5.50;;;10.20;99.90;;;;;;5062242;28;20024;-66
2024/02/16 03:58:11;;;;;;;15.65;6.32;;;10.10;99.90;;;;;;5062429;28;20111;-68
2024/02/16 04:00:36;;;;;;;12.27;5.53;;;10.10;99.90;;;;;;5062335;28;20115;-69
2024/02/16 04:03:02;;;;;;;14.43;5.78;;;10.10;99.90;;;;;;5062034;28;20611;-67
2024/02/16 04:05:32;;;;;;;11.40;5.35;;;10.10;99.90;;;;;;5062076;28;20048;-67
2024/02/16 04:08:01;;;;;;;12.85;5.30;;;10.10;99.90;;;;;;5062171;28;20072;-68
2024/02/16 04:10:28;;;;;;;10.20;4.38;;;10.10;99.90;;;;;;5061809;28;20039;-68
2024/02/16 04:12:55;;;;;;;8.88;4.70;;;10.10;99.90;;;;;;5061950;28;20045;-67
2024/02/16 04:15:20;;;;;;;11.10;5.05;;;10.10;99.90;;;;;;5062451;28;20028;-68
2024/02/16 04:17:46;;;;;;;10.20;4.90;;;10.10;99.90;;;;;;5061806;28;20028;-69
2024/02/16 04:20:11;;;;;;;9.65;5.22;;;10.10;99.90;;;;;;5062212;28;20029;-66
2024/02/16 04:22:37;;;;;;;8.48;5.20;;;10.10;99.90;;;;;;5060760;28;20028;-65
2024/02/16 04:25:04;;;;;;;13.70;5.20;;;10.00;99.90;;;;;;5061396;28;20552;-67
2024/02/16 04:27:30;;;;;;;10.65;4.90;;;10.00;99.90;;;;;;5061546;28;20523;-69
2024/02/16 04:29:55;;;;;;;10.75;4.40;;;10.00;99.90;;;;;;5060683;28;20036;-66
2024/02/16 04:32:21;;;;;;;16.27;4.80;;;10.00;99.90;;;;;;5060503;28;20024;-65
2024/02/16 04:34:50;;;;;;;12.98;5.00;;;10.00;99.90;;;;;;5061937;28;20044;-66
2024/02/16 04:37:20;;;;;;;8.25;4.53;;;10.00;99.90;;;;;;5061491;28;20054;-67
2024/02/16 04:39:46;;;;;;;9.23;4.68;;;10.00;99.90;;;;;;5060428;28;20025;-65
2024/02/16 04:42:11;;;;;;;11.63;4.80;;;10.00;99.90;;;;;;5061765;28;20600;-67
2024/02/16 04:44:40;;;;;;;14.98;5.60;;;10.00;99.90;;;;;;5060493;28;20043;-65
2024/02/16 04:47:06;;;;;;;10.25;4.88;;;10.00;99.90;;;;;;5061808;28;20029;-69
2024/02/16 04:49:32;;;;;;;10.30;5.25;;;9.90;99.90;;;;;;5061590;28;20155;-67
2024/02/16 04:51:58;;;;;;;7.72;4.75;;;10.00;99.90;;;;;;5060190;28;20036;-68
2024/02/16 04:54:24;;;;;;;6.78;4.03;;;9.90;99.90;;;;;;5061316;28;20118;-69
2024/02/16 04:56:50;;;;;;;10.65;4.43;;;9.90;99.90;;;;;;5061689;28;20021;-65
2024/02/16 04:59:16;;;;;;;10.05;4.30;;;9.90;99.90;;;;;;5060234;28;20024;-68
2024/02/16 05:01:44;;;;;;;9.75;4.43;;;9.90;99.90;;;;;;5061534;28;20025;-65
2024/02/16 05:04:10;;;;;;;9.82;4.47;;;9.80;99.90;;;;;;5061524;28;20073;-65
2024/02/16 05:06:42;;;;;;;8.45;4.07;;;9.80;99.90;;;;;;5057891;28;20508;-66
2024/02/16 05:09:08;;;;;;;8.65;3.90;;;9.80;99.90;;;;;;5059097;28;20426;-67
2024/02/16 05:11:34;;;;;;;7.72;4.18;;;9.80;99.90;;;;;;5060341;28;20089;-65
2024/02/16 05:13:59;;;;;;;12.23;4.47;;;9.80;99.90;;;;;;5060007;28;20048;-66
2024/02/16 05:16:25;;;;;;;7.63;4.13;;;9.80;99.90;;;;;;5061935;28;20013;-68
2024/02/16 05:18:52;;;;;;;9.52;4.40;;;9.80;99.90;;;;;;5061702;28;20485;-66
2024/02/16 05:21:17;;;;;;;9.18;4.68;;;9.80;99.90;;;;;;5061844;28;20013;-68
2024/02/16 05:23:43;;;;;;;11.00;4.90;;;9.80;99.90;;;;;;5061770;28;20021;-66
2024/02/16 05:26:09;;;;;;;8.07;4.78;;;9.80;99.90;;;;;;5061542;28;20063;-66
2024/02/16 05:28:34;;;;;;;8.20;4.82;;;9.80;99.90;;;;;;5061676;28;20023;-66
2024/02/16 05:31:18;;;;;;;10.77;4.90;;;9.80;99.90;;;;;;5061471;28;20045;-66
2024/02/16 05:33:45;;;;;;;12.40;4.90;;;9.80;99.90;;;;;;5061154;28;20024;-66
2024/02/16 05:36:10;;;;;;;9.00;5.00;;;9.90;99.90;;;;;;5061670;28;20025;-64
2024/02/16 05:38:41;;;;;;;12.88;4.80;;;9.90;99.90;;;;;;5061415;28;20027;-65
2024/02/16 05:41:07;;;;;;;10.57;4.50;;;9.90;99.90;;;;;;5061767;28;20048;-65
2024/02/16 05:43:33;;;;;;;15.30;4.88;;;9.90;99.90;;;;;;5061446;28;20025;-66
2024/02/16 05:45:59;;;;;;;10.85;4.18;;;9.90;99.90;;;;;;5060419;28;20112;-67
2024/02/16 05:48:26;;;;;;;10.60;4.43;;;9.80;99.90;;;;;;5055273;28;20079;-66
2024/02/16 05:50:52;;;;;;;11.27;4.80;;;9.80;99.90;;;;;;5061126;28;20389;-67
2024/02/16 05:53:18;;;;;;;14.90;5.35;;;9.80;99.90;;;;;;5059550;28;20021;-64
2024/02/16 05:55:44;;;;;;;9.70;4.43;;;9.80;99.90;;;;;;5056234;28;20068;-65
2024/02/16 05:58:10;;;;;;;12.48;5.13;;;9.70;99.90;;;;;;5063550;28;20014;-64
2024/02/16 06:00:36;;;;;;;10.05;4.40;;;9.70;99.90;;;;;;5062138;28;20476;-66
2024/02/16 06:03:02;;;;;;;6.38;4.03;;;9.70;99.90;;;;;;5063091;28;20033;-66
2024/02/16 06:05:28;;;;;;;8.27;4.22;;;9.70;99.90;;;;;;5062538;28;20493;-67
2024/02/16 06:07:56;;;;;;;9.02;4.15;;;9.60;99.90;;;;;;5062590;28;20161;-65
2024/02/16 06:10:22;;;;;;;9.75;4.57;;;9.70;99.90;;;;;;5062608;28;20572;-68
2024/02/16 06:12:48;;;;;;;10.77;4.03;;;9.60;99.90;;;;;;5063387;28;20024;-66
2024/02/16 06:15:16;;;;;;;11.30;4.13;;;9.60;99.90;;;;;;5062499;28;20025;-65
2024/02/16 06:17:42;;;;;;;8.73;4.57;;;9.60;99.90;;;;;;5061823;28;20032;-66
2024/02/16 06:20:10;;;;;;;9.25;4.43;;;9.60;99.90;;;;;;5062512;28;20033;-67
2024/02/16 06:22:36;;;;;;;7.90;3.90;;;9.60;99.90;;;;;;5062118;28;20487;-66
2024/02/16 06:25:02;;;;;;;10.07;4.53;;;9.60;99.90;;;;;;5061061;28;20037;-69
2024/02/16 06:27:28;;;;;;;14.30;4.70;;;9.60;99.90;;;;;;5061527;28;20220;-69
2024/02/16 06:29:53;;;;;;;9.60;4.45;;;9.60;99.90;;;;;;5061990;28;20091;-68
2024/02/16 06:32:19;;;;;;;14.57;5.10;;;9.60;99.90;;;;;;5064521;28;20044;-66
2024/02/16 06:34:48;;;;;;;10.90;4.25;;;9.60;99.90;;;;;;5063948;28;20028;-66
2024/02/16 06:37:14;;;;;;;12.43;4.55;;;9.60;99.90;;;;;;5063836;28;20059;-65
2024/02/16 06:39:40;;;;;;;13.07;4.28;;;9.70;99.90;;;;;;5061393;28;22596;-66
2024/02/16 06:42:06;;;;;;;9.25;4.30;;;9.70;99.90;;;;;;5063149;28;20017;-69
2024/02/16 06:44:33;;;;;;;10.02;3.88;;;9.70;99.90;;;;;;5063691;28;20025;-67
2024/02/16 06:46:58;;;;;;;10.68;4.05;;;9.60;99.90;;;;;;5063281;28;20063;-66
2024/02/16 06:49:24;;;;;;;11.68;4.35;;;9.60;99.90;;;;;;5061363;28;20041;-67
2024/02/16 06:51:49;;;;;;;10.20;3.65;;;9.60;99.90;;;;;;5063609;28;20040;-65
2024/02/16 06:54:15;;;;;;;6.78;3.97;;;9.60;99.90;;;;;;5063535;28;20017;-67
2024/02/16 06:56:40;;;;;;;9.85;4.10;;;9.60;99.90;;;;;;5062645;28;20081;-66
2024/02/16 06:59:06;;;;;;;10.45;4.15;;;9.60;99.90;;;;;;5064029;28;20405;-66
2024/02/16 07:01:32;;;;;;;9.57;4.07;;;9.60;99.90;;;;;;5063982;28;20028;-68
2024/02/16 07:03:57;;;;;;;8.20;3.90;;;9.60;99.90;;;;;;5062875;28;20068;-66
2024/02/16 07:06:23;;;;;;;9.85;3.97;;;9.60;99.90;;;;;;5063408;28;20158;-65
2024/02/16 07:08:48;;;;;;;12.48;4.15;;;9.60;99.90;;;;;;5062688;28;20104;-65
2024/02/16 07:11:14;;;;;;;7.38;3.97;;;9.60;99.90;;;;;;5059434;28;20025;-66
2024/02/16 07:13:42;;;;;;;9.20;4.13;;;9.70;99.90;;;;;;5060100;28;20054;-66
2024/02/16 07:16:08;;;;;;;10.02;4.00;;;9.60;99.90;;;;;;5063264;28;20025;-65
2024/02/16 07:18:34;;;;;;;9.27;3.85;;;9.60;99.90;;;;;;5062563;28;20075;-66
2024/02/16 07:20:59;;;;;;;9.32;4.00;;;9.70;99.90;;;;;;5063960;28;20058;-65
2024/02/16 07:23:25;;;;;;;10.45;4.22;;;9.70;99.90;;;;;;5063429;28;20028;-65
2024/02/16 07:25:55;;;;;;;7.38;4.10;;;9.70;99.90;;;;;;5063017;28;20025;-66
2024/02/16 07:28:20;;;;;;;9.75;4.38;;;9.80;99.90;;;;;;5063794;28;20035;-65
2024/02/16 07:30:46;;;;;;;11.13;4.30;;;9.80;99.90;;;;;;5061275;28;20029;-66
2024/02/16 07:33:11;;;;;;;10.07;4.88;;;9.80;99.90;;;;;;5053078;28;20038;-68
2024/02/16 07:35:38;;;;;;;10.27;3.85;;;9.80;99.90;;;;;;5060607;28;20619;-66
2024/02/16 07:38:04;;;;;;;6.00;3.78;;;9.90;99.90;;;;;;5060741;28;20021;-68
2024/02/16 07:40:30;;;;;;;10.10;4.22;;;9.90;99.90;;;;;;5058444;28;20025;-64
2024/02/16 07:42:56;;;;;;;10.02;4.18;;;9.90;99.90;;;;;;5060071;28;20390;-67
2024/02/16 07:45:22;;;;;;;12.63;3.90;;;10.00;99.90;;;;;;5058326;28;20033;-66
2024/02/16 07:47:48;;;;;;;10.23;3.83;;;10.10;99.90;;;;;;5057405;28;20656;-67
2024/02/16 07:50:13;;;;;;;11.73;4.30;;;10.10;99.90;;;;;;5062601;28;20136;-66
2024/02/16 07:52:42;;;;;;;10.52;4.20;;;10.20;99.90;;;;;;5061398;28;20032;-66
2024/02/16 07:55:08;;;;;;;12.85;4.28;;;10.20;99.90;;;;;;5059161;28;20032;-66
2024/02/16 07:57:35;;;;;;;11.52;4.18;;;10.20;99.90;;;;;;5060925;28;20033;-67
2024/02/16 08:00:00;;;;;;;10.55;4.05;;;10.30;99.90;;;;;;5058091;28;20053;-67
2024/02/16 08:02:26;;;;;;;8.80;3.67;;;10.30;99.90;;;;;;5057420;28;20036;-66
2024/02/16 08:04:52;;;;;;;8.60;3.90;;;10.40;99.90;;;;;;5060259;28;20078;-68
2024/02/16 08:07:17;;;;;;;8.90;4.20;;;10.40;99.90;;;;;;5057245;28;20053;-66
2024/02/16 08:09:46;;;;;;;11.27;4.38;;;10.40;99.90;;;;;;5059970;28;20040;-65
2024/02/16 08:12:15;;;;;;;5.60;3.95;;;10.50;99.90;;;;;;5062239;28;20057;-65
2024/02/16 08:14:41;;;;;;;8.07;4.03;;;10.50;99.90;;;;;;5058779;28;20477;-66
2024/02/16 08:17:07;;;;;;;7.63;4.25;;;10.60;99.90;;;;;;5057747;28;20056;-67
2024/02/16 08:19:37;;;;;;;5.75;3.83;;;10.60;99.90;;;;;;5061066;28;20493;-67
2024/02/16 08:22:04;;;;;;;9.02;4.25;;;10.60;99.90;;;;;;5061167;28;20017;-67
2024/02/16 08:24:39;;;;;;;11.68;4.38;;;10.60;99.90;;;;;;5059368;28;20044;-65
2024/02/16 08:27:05;;;;;;;9.55;3.97;;;10.70;99.90;;;;;;5059706;28;20024;-65
2024/02/16 08:29:30;;;;;;;8.90;3.90;;;10.70;99.90;;;;;;5060050;28;20051;-67
2024/02/16 08:31:56;;;;;;;10.00;3.90;;;10.80;99.90;;;;;;5062076;28;20024;-67
2024/02/16 08:34:22;;;;;;;10.50;4.10;;;10.70;99.90;;;;;;5062419;28;20043;-65
2024/02/16 08:36:48;;;;;;;6.45;3.67;;;10.80;99.90;;;;;;5060698;28;20037;-65
2024/02/16 08:39:15;;;;;;;9.23;4.38;;;10.80;99.90;;;;;;5061742;28;20056;-65
2024/02/16 08:41:40;;;;;;;9.88;4.05;;;10.90;99.90;;;;;;5061758;28;20048;-65
2024/02/16 08:44:10;;;;;;;7.95;4.45;;;10.90;99.90;;;;;;5059814;28;20044;-64
2024/02/16 08:46:36;;;;;;;9.50;3.97;;;10.90;99.90;;;;;;5054528;28;20032;-65
2024/02/16 08:49:03;;;;;;;8.20;4.05;;;11.00;99.90;;;;;;5060197;28;20033;-66
2024/02/16 08:51:28;;;;;;;7.50;3.70;;;11.00;99.90;;;;;;5060635;28;20025;-69
2024/02/16 08:53:54;;;;;;;8.93;3.83;;;11.10;99.90;;;;;;5057859;28;20032;-66
2024/02/16 08:56:20;;;;;;;11.07;4.10;;;11.10;99.90;;;;;;5061384;28;20032;-66
2024/02/16 08:58:45;;;;;;;7.78;3.85;;;11.20;99.90;;;;;;5054224;28;20048;-65
2024/02/16 09:01:11;;;;;;;9.80;3.78;;;11.20;99.90;;;;;;5053030;28;20013;-68
2024/02/16 09:03:39;;;;;;;12.18;4.13;;;11.30;99.90;;;;;;5058436;28;20110;-66
2024/02/16 09:06:05;;;;;;;7.78;3.85;;;11.30;99.90;;;;;;5059452;28;20045;-64
2024/02/16 09:08:35;;;;;;;7.50;3.53;;;11.40;99.90;;;;;;5056549;28;20496;-67
2024/02/16 09:11:05;;;;;;;8.50;3.53;;;11.40;99.90;;;;;;5057222;28;20486;-64
2024/02/16 09:13:39;;;;;;;7.20;3.85;;;11.40;99.90;;;;;;5057185;28;20056;-65
2024/02/16 09:16:04;;;;;;;;;;;11.50;99.90;;;;;;5051798;28;20033;-65
2024/02/16 09:18:30;;;;;;;7.68;3.47;;;11.60;99.90;;;;;;5053968;28;19940;-69
2024/02/16 09:20:56;;;;;;;9.77;3.72;;;11.60;99.90;;;;;;5057414;28;20033;-67
2024/02/16 09:23:21;;;;;;;11.13;3.30;;;11.70;99.90;;;;;;5058568;28;20032;-66
2024/02/16 09:25:48;;;;;;;7.78;3.45;;;11.70;99.90;;;;;;5056932;28;20041;-68
2024/02/16 09:28:14;;;;;;;10.52;3.50;;;11.80;99.90;;;;;;5054429;28;20036;-66
2024/02/16 09:30:39;;;;;;;6.55;3.63;;;11.90;99.90;;;;;;5055148;28;20067;-66
2024/02/16 09:33:07;;;;;;;7.70;3.35;;;11.90;99.90;;;;;;5064075;28;20033;-66
2024/02/16 09:35:32;;;;;;;8.32;3.40;;;12.00;99.90;;;;;;5064931;28;20021;-66
2024/02/16 09:37:58;;;;;;;6.38;3.28;;;12.00;99.90;;;;;;5064574;28;20495;-69
2024/02/16 09:40:24;;;;;;;7.28;3.50;;;12.10;99.90;;;;;;5065362;28;20027;-67
2024/02/16 09:42:50;;;;;;;8.27;3.05;;;12.10;99.90;;;;;;5065339;28;20029;-65
2024/02/16 09:45:16;;;;;;;5.53;3.00;;;12.20;99.90;;;;;;5064631;28;20021;-65
2024/02/16 09:47:44;;;;;;;6.65;3.47;;;12.20;99.90;;;;;;5064886;28;20131;-66
2024/02/16 09:50:10;;;;;;;7.25;3.30;;;12.30;99.90;;;;;;5064695;28;20078;-65
2024/02/16 09:52:37;;;;;;;5.53;3.20;;;12.30;99.90;;;;;;5064992;28;20104;-66
2024/02/16 09:55:04;;;;;;;7.90;3.38;;;12.30;99.90;;;;;;5065058;28;20089;-64
2024/02/16 09:57:31;;;;;;;6.32;3.17;;;12.40;99.90;;;;;;5064810;28;20028;-65
2024/02/16 09:59:56;;;;;;;8.20;3.63;;;12.50;99.90;;;;;;5064171;28;20426;-66
2024/02/16 10:02:22;;;;;;;8.07;3.50;;;12.50;99.90;;;;;;5064978;28;20025;-68
2024/02/16 10:04:47;;;;;;;5.85;3.30;;;12.60;99.90;;;;;;5064869;28;20116;-64
2024/02/16 10:07:13;;;;;;;10.77;3.35;;;12.70;99.90;;;;;;5064401;28;20126;-65
2024/02/16 10:09:40;;;;;;;7.80;3.20;;;12.80;99.90;;;;;;5064776;28;20036;-66
2024/02/16 10:12:06;;;;;;;10.45;3.60;;;12.80;99.90;;;;;;5064568;28;20035;-65
2024/02/16 10:14:32;;;;;;;8.43;3.97;;;12.90;99.90;;;;;;5063570;28;20021;-66
2024/02/16 10:17:06;;;;;;;11.40;4.68;;;13.00;99.90;;;;;;5061211;28;20029;-65
2024/02/16 10:19:39;;;;;;;10.13;5.13;;;13.00;99.90;;;;;;5055859;28;20191;-66
2024/02/16 10:22:14;;;;;;;15.45;5.00;;;13.00;99.90;;;;;;5058552;28;20051;-64
2024/02/16 10:24:40;;;;;;;12.18;5.95;;;13.10;99.90;;;;;;5058846;28;20036;-65
2024/02/16 10:27:10;;;;;;;15.20;8.88;;;13.10;99.90;;;;;;5062073;28;20043;-65
2024/02/16 10:29:38;;;;;;;17.58;8.93;;;13.10;99.90;;;;;;5062266;28;20029;-66
2024/02/16 10:32:04;;;;;;;17.67;9.00;;;13.20;99.90;;;;;;5058776;28;20067;-68
2024/02/16 10:34:32;;;;;;;16.27;7.80;;;13.20;99.90;;;;;;5062233;28;20025;-67
2024/02/16 10:36:59;;;;;;;13.50;6.30;;;13.30;99.90;;;;;;5061256;28;20040;-68
2024/02/16 10:39:25;;;;;;;8.30;5.53;;;13.30;99.90;;;;;;5061648;28;20126;-66
2024/02/16 10:41:51;;;;;;;11.90;5.22;;;13.40;99.90;;;;;;5062693;28;20694;-67
2024/02/16 10:44:17;;;;;;;10.93;5.00;;;13.50;99.90;;;;;;5062781;28;20089;-67
2024/02/16 10:46:42;;;;;;;13.43;5.78;;;13.60;99.90;;;;;;5062568;28;20032;-65
2024/02/16 10:49:09;;;;;;;11.73;4.40;;;13.70;99.90;;;;;;5062430;28;20049;-66
2024/02/16 10:51:57;;;;;;;11.40;5.07;;;13.80;99.90;;;;;;5062585;28;20029;-67
2024/02/16 10:54:27;;;;;;;9.82;4.80;;;13.80;99.90;;;;;;5064219;28;20032;-68
2024/02/16 10:56:56;;;;;;;11.88;4.75;;;14.00;99.90;;;;;;5063519;28;20036;-69
2024/02/16 10:59:21;;;;;;;13.38;4.20;;;14.20;99.90;;;;;;5062140;28;20069;-69
2024/02/16 11:01:47;;;;;;;9.82;4.53;;;14.40;99.90;;;;;;5060186;28;21022;-66
2024/02/16 11:04:17;;;;;;;11.38;4.70;;;14.70;99.90;;;;;;5061451;28;20040;-68
2024/02/16 11:06:49;;;;;;;13.30;4.70;;;14.80;99.90;;;;;;5058238;28;20037;-66
2024/02/16 11:09:34;;;;;;;8.90;4.40;;;14.90;99.90;;;;;;5061658;28;20045;-65
2024/02/16 11:12:02;;;;;;;11.57;3.92;;;14.90;99.90;;;;;;5060158;28;20060;-67
2024/02/16 11:14:38;;;;;;;9.32;4.25;;;14.80;99.90;;;;;;5058819;28;20035;-69
2024/02/16 11:17:14;;;;;;;10.00;4.38;;;14.80;99.90;;;;;;5060542;28;20052;-66
2024/02/16 11:19:47;;;;;;;8.98;4.13;;;14.80;99.90;;;;;;5061615;28;20032;-69
2024/02/16 11:22:18;;;;;;;12.73;4.32;;;14.80;99.90;;;;;;5060630;28;20031;-67
2024/02/16 11:24:48;;;;;;;10.90;4.45;;;14.90;99.90;;;;;;5060508;28;20055;-66
2024/02/16 11:27:21;;;;;;;7.53;4.13;;;15.00;99.90;;;;;;5061494;28;20053;-69
2024/02/16 11:29:48;;;;;;;8.27;4.18;;;15.10;99.90;;;;;;5060906;28;20135;-67
2024/02/16 11:32:14;;;;;;;9.38;4.88;;;15.10;99.90;;;;;;5061780;28;20089;-66
2024/02/16 11:34:40;;;;;;;7.85;4.20;;;15.00;99.90;;;;;;5061264;28;20053;-69
2024/02/16 11:37:08;;;;;;;9.80;4.60;;;14.90;99.90;;;;;;5062867;28;20032;-67
2024/02/16 11:39:37;;;;;;;11.15;5.00;;;14.90;99.90;;;;;;5061730;28;20044;-67
2024/02/16 11:42:11;;;;;;;11.20;4.88;;;14.80;99.90;;;;;;5061202;28;20037;-67
2024/02/16 11:44:39;;;;;;;11.57;4.70;;;14.70;99.90;;;;;;5062780;28;20503;-68
2024/02/16 11:47:09;;;;;;;10.18;4.70;;;14.70;99.90;;;;;;5058301;28;20740;-68
2024/02/16 11:49:34;;;;;;;11.05;4.88;;;14.70;99.90;;;;;;5060308;28;20047;-70
2024/02/16 11:52:00;;;;;;;10.18;4.80;;;14.70;99.90;;;;;;5059493;28;20085;-66
2024/02/16 11:54:26;;;;;;;10.32;4.63;;;14.60;99.90;;;;;;5059123;28;20036;-66
2024/02/16 11:56:52;;;;;;;7.57;4.78;;;14.60;99.90;;;;;;5061930;28;20037;-67
2024/02/16 11:59:19;;;;;;;7.68;4.05;;;14.50;99.90;;;;;;5059575;28;20033;-66
2024/02/16 12:01:58;;;;;;;10.80;5.45;;;14.50;99.90;;;;;;5059703;28;20037;-67
2024/02/16 12:04:24;;;;;;;7.10;4.68;;;14.40;99.90;;;;;;5059372;28;20032;-66
2024/02/16 12:07:04;;;;;;;12.27;5.30;;;14.40;99.90;;;;;;5062142;28;20075;-68
2024/02/16 12:09:32;;;;;;;14.75;5.60;;;14.30;99.90;;;;;;5061379;28;20037;-67
2024/02/16 12:11:58;;;;;;;13.77;6.70;;;14.20;99.90;;;;;;5059738;28;20021;-67
2024/02/16 12:14:24;;;;;;;8.82;5.65;;;14.20;99.90;;;;;;5058000;28;20086;-67
2024/02/16 12:16:51;;;;;;;13.18;6.53;;;14.00;99.90;;;;;;5061710;28;20025;-70
2024/02/16 12:19:20;;;;;;;16.73;7.35;;;13.70;99.90;;;;;;5060496;28;20093;-67
2024/02/16 12:21:49;;;;;;;15.70;6.57;;;13.60;99.90;;;;;;5058230;28;20092;-64
2024/02/16 12:24:14;;;;;;;14.55;6.65;;;13.50;99.90;;;;;;5058771;28;20143;-66
2024/02/16 12:26:41;;;;;;;16.33;8.18;;;13.40;99.90;;;;;;5057343;28;20454;-65
2024/02/16 12:29:06;;;;;;;14.00;7.20;;;13.30;99.90;;;;;;5057972;28;20021;-69
2024/02/16 12:31:32;;;;;;;13.65;7.30;;;13.30;99.90;;;;;;5061664;28;20054;-66
2024/02/16 12:33:58;;;;;;;16.55;7.50;;;13.20;99.90;;;;;;5061144;28;20032;-67
2024/02/16 12:36:23;;;;;;;24.02;8.23;;;13.20;99.90;;;;;;5062450;28;20390;-67
2024/02/16 12:38:49;;;;;;;17.33;7.95;;;13.20;99.90;;;;;;5061681;28;20033;-67
2024/02/16 12:41:15;;;;;;;16.25;7.82;;;13.20;99.90;;;;;;5060780;28;20072;-69